Time,TemperatureF,DewpointF,PressureIn,WindDirection,WindDirectionDegrees,WindSpeedMPH,WindSpeedGustMPH,Humidity,HourlyPrecipIn,Conditions,Clouds,dailyrainin,SolarRadiationWatts/m^2,SoftwareType,DateUTC
2013-06-26 00:01:00,69.0,68.0,-100.00,WNW,297,1.0,4.0,97,0.00,,,0.00,0.000000,,2013-06-26 04:01:00,
2013-06-26 00:43:00,69.0,68.0,-100.00,East,91,1.0,4.0,98,0.00,,,0.00,0.000000,,2013-06-26 04:43:00,
2013-06-26 00:53:00,69.0,68.0,-100.00,East,91,1.0,4.0,98,0.00,,,0.00,0.000000,,2013-06-26 04:53:00,
2013-06-26 01:02:00,69.0,68.0,-100.00,East,91,1.0,4.0,98,0.00,,,0.00,0.000000,,2013-06-26 05:02:00,
2013-06-26 01:34:00,68.0,67.0,-100.00,SE,141,2.0,4.0,98,0.00,,,0.00,0.000000,,2013-06-26 05:34:00,
2013-06-26 01:43:00,68.0,67.0,-100.00,SE,141,2.0,4.0,98,0.00,,,0.00,0.000000,,2013-06-26 05:43:00,
2013-06-26 01:52:00,68.0,67.0,-100.00,SE,141,2.0,4.0,98,0.00,,,0.00,0.000000,,2013-06-26 05:52:00,
2013-06-26 02:02:00,68.0,67.0,-100.00,SE,141,2.0,4.0,98,0.00,,,0.00,0.000000,,2013-06-26 06:02:00,
2013-06-26 02:34:00,68.0,67.0,-100.00,SE,134,2.0,6.0,97,0.00,,,0.00,0.000000,,2013-06-26 06:34:00,
2013-06-26 02:44:00,68.0,67.0,-100.00,SE,134,2.0,6.0,97,0.00,,,0.00,0.000000,,2013-06-26 06:44:00,
2013-06-26 02:53:00,68.0,67.0,-100.00,SE,134,2.0,6.0,97,0.00,,,0.00,0.000000,,2013-06-26 06:53:00,
2013-06-26 03:01:00,68.0,67.0,-100.00,SE,134,2.0,6.0,97,0.00,,,0.00,0.000000,,2013-06-26 07:01:00,
2013-06-26 03:43:00,67.0,66.0,-100.00,SSE,163,1.0,3.0,97,0.00,,,0.00,0.000000,,2013-06-26 07:43:00,
2013-06-26 03:53:00,67.0,66.0,-100.00,SSE,163,1.0,3.0,97,0.00,,,0.00,0.000000,,2013-06-26 07:53:00,
2013-06-26 04:01:00,67.0,66.0,-100.00,SSE,163,1.0,3.0,97,0.00,,,0.00,0.000000,,2013-06-26 08:01:00,
2013-06-26 04:34:00,66.0,65.0,-100.00,North,9,2.0,4.0,98,0.00,,,0.00,0.000000,,2013-06-26 08:34:00,
2013-06-26 04:43:00,66.0,65.0,-100.00,North,9,2.0,4.0,98,0.00,,,0.00,0.000000,,2013-06-26 08:43:00,
2013-06-26 04:53:00,66.0,65.0,-100.00,North,9,2.0,4.0,98,0.00,,,0.00,0.000000,,2013-06-26 08:53:00,
2013-06-26 05:01:00,66.0,65.0,-100.00,North,9,2.0,4.0,98,0.00,,,0.00,0.000000,,2013-06-26 09:01:00,
2013-06-26 05:43:00,65.0,64.0,-100.00,SE,142,2.0,4.0,98,0.00,,,0.00,0.000000,,2013-06-26 09:43:00,
2013-06-26 05:53:00,65.0,64.0,-100.00,SE,142,2.0,4.0,98,0.00,,,0.00,0.000000,,2013-06-26 09:53:00,
2013-06-26 06:01:00,65.0,64.0,-100.00,SE,142,2.0,4.0,98,0.00,,,0.00,0.000000,,2013-06-26 10:01:00,
2013-06-26 06:43:00,64.0,63.0,-100.00,North,352,1.0,4.0,98,0.00,,,0.00,0.000000,,2013-06-26 10:43:00,
2013-06-26 06:53:00,64.0,63.0,-100.00,North,352,1.0,4.0,98,0.00,,,0.00,0.000000,,2013-06-26 10:53:00,
2013-06-26 07:02:00,64.0,63.0,-100.00,North,352,1.0,4.0,98,0.00,,,0.00,0.000000,,2013-06-26 11:02:00,
2013-06-26 07:44:00,65.0,65.0,-100.00,ESE,123,2.0,3.0,99,0.00,,,0.00,7.000000,,2013-06-26 11:44:00,
2013-06-26 07:52:00,65.0,65.0,-100.00,ESE,123,2.0,3.0,99,0.00,,,0.00,7.000000,,2013-06-26 11:52:00,
2013-06-26 08:02:00,65.0,65.0,-100.00,ESE,123,2.0,3.0,99,0.00,,,0.00,7.000000,,2013-06-26 12:02:00,
2013-06-26 08:43:00,68.0,67.0,-100.00,South,172,2.0,5.0,98,0.00,,,0.00,79.000000,,2013-06-26 12:43:00,
2013-06-26 08:52:00,68.0,67.0,-100.00,South,172,2.0,5.0,98,0.00,,,0.00,79.000000,,2013-06-26 12:52:00,
2013-06-26 09:02:00,68.0,67.0,-100.00,South,172,2.0,5.0,98,0.00,,,0.00,79.000000,,2013-06-26 13:02:00,
2013-06-26 09:43:00,70.0,69.0,-100.00,East,101,2.0,5.0,97,0.00,,,0.00,142.000000,,2013-06-26 13:43:00,
2013-06-26 09:53:00,70.0,69.0,-100.00,East,101,2.0,5.0,97,0.00,,,0.00,142.000000,,2013-06-26 13:53:00,
2013-06-26 10:02:00,70.0,69.0,-100.00,East,101,2.0,5.0,97,0.00,,,0.00,142.000000,,2013-06-26 14:02:00,
2013-06-26 10:34:00,72.0,70.0,-100.00,SSE,168,3.0,5.0,94,0.00,,,0.00,198.000000,,2013-06-26 14:34:00,
2013-06-26 10:42:00,72.0,70.0,-100.00,SSE,168,3.0,5.0,94,0.00,,,0.00,198.000000,,2013-06-26 14:42:00,
2013-06-26 10:53:00,72.0,70.0,-100.00,SSE,168,3.0,5.0,94,0.00,,,0.00,198.000000,,2013-06-26 14:53:00,
2013-06-26 11:02:00,72.0,70.0,-100.00,SSE,168,3.0,5.0,94,0.00,,,0.00,198.000000,,2013-06-26 15:02:00,
2013-06-26 11:34:00,80.0,72.0,-100.00,SSE,163,3.0,6.0,77,0.00,,,0.00,646.000000,,2013-06-26 15:34:00,
2013-06-26 11:44:00,80.0,72.0,-100.00,SSE,163,3.0,6.0,77,0.00,,,0.00,646.000000,,2013-06-26 15:44:00,
2013-06-26 11:53:00,80.0,72.0,-100.00,SSE,163,3.0,6.0,77,0.00,,,0.00,646.000000,,2013-06-26 15:53:00,
2013-06-26 12:01:00,80.0,72.0,-100.00,SSE,163,3.0,6.0,77,0.00,,,0.00,646.000000,,2013-06-26 16:01:00,
2013-06-26 12:34:00,81.0,71.0,-100.00,North,359,5.0,11.0,72,0.00,,,0.00,683.000000,,2013-06-26 16:34:00,
2013-06-26 12:43:00,81.0,71.0,-100.00,North,359,5.0,11.0,72,0.00,,,0.00,683.000000,,2013-06-26 16:43:00,
2013-06-26 12:52:00,81.0,71.0,-100.00,North,359,5.0,11.0,72,0.00,,,0.00,683.000000,,2013-06-26 16:52:00,
2013-06-26 13:02:00,81.0,71.0,-100.00,North,359,5.0,11.0,72,0.00,,,0.00,683.000000,,2013-06-26 17:02:00,
2013-06-26 13:43:00,84.0,74.0,-100.00,WNW,302,4.0,12.0,71,0.00,,,0.00,696.000000,,2013-06-26 17:43:00,
2013-06-26 13:52:00,84.0,74.0,-100.00,WNW,302,4.0,12.0,71,0.00,,,0.00,696.000000,,2013-06-26 17:52:00,
2013-06-26 14:01:00,84.0,74.0,-100.00,WNW,302,4.0,12.0,71,0.00,,,0.00,696.000000,,2013-06-26 18:01:00,
2013-06-26 15:43:00,84.0,74.0,-100.00,WNW,284,6.0,11.0,71,0.00,,,0.00,623.000000,,2013-06-26 19:43:00,
2013-06-26 15:52:00,84.0,74.0,-100.00,WNW,284,6.0,11.0,71,0.00,,,0.00,623.000000,,2013-06-26 19:52:00,
2013-06-26 16:02:00,84.0,74.0,-100.00,WNW,284,6.0,11.0,71,0.00,,,0.00,623.000000,,2013-06-26 20:02:00,
2013-06-26 16:34:00,83.0,68.0,-100.00,SSW,208,5.0,11.0,60,0.00,,,0.00,732.000000,,2013-06-26 20:34:00,
2013-06-26 16:43:00,83.0,68.0,-100.00,SSW,208,5.0,11.0,60,0.00,,,0.00,732.000000,,2013-06-26 20:43:00,
2013-06-26 16:52:00,83.0,68.0,-100.00,SSW,208,5.0,11.0,60,0.00,,,0.00,732.000000,,2013-06-26 20:52:00,
2013-06-26 17:02:00,83.0,68.0,-100.00,SSW,208,5.0,11.0,60,0.00,,,0.00,732.000000,,2013-06-26 21:02:00,
2013-06-26 17:33:00,83.0,70.0,-100.00,SW,233,5.0,8.0,64,0.00,,,0.00,424.000000,,2013-06-26 21:33:00,
2013-06-26 17:43:00,83.0,70.0,-100.00,SW,233,5.0,8.0,64,0.00,,,0.00,424.000000,,2013-06-26 21:43:00,
2013-06-26 17:52:00,83.0,70.0,-100.00,SW,233,5.0,8.0,64,0.00,,,0.00,424.000000,,2013-06-26 21:52:00,
2013-06-26 18:01:00,83.0,70.0,-100.00,SW,233,5.0,8.0,64,0.00,,,0.00,424.000000,,2013-06-26 22:01:00,
2013-06-26 18:43:00,82.0,69.0,-100.00,SSW,195,4.0,10.0,66,0.00,,,0.00,448.000000,,2013-06-26 22:43:00,
2013-06-26 18:52:00,82.0,69.0,-100.00,SSW,195,4.0,10.0,66,0.00,,,0.00,448.000000,,2013-06-26 22:52:00,
2013-06-26 19:02:00,82.0,69.0,-100.00,SSW,195,4.0,10.0,66,0.00,,,0.00,448.000000,,2013-06-26 23:02:00,
2013-06-26 19:34:00,80.0,68.0,-100.00,South,190,4.0,11.0,68,0.00,,,-99.99,277.000000,,2013-06-26 23:34:00,
2013-06-26 19:43:00,80.0,68.0,-100.00,South,190,4.0,11.0,68,0.00,,,-99.99,277.000000,,2013-06-26 23:43:00,
2013-06-26 19:53:00,80.0,68.0,-100.00,South,190,4.0,11.0,68,0.00,,,-99.99,277.000000,,2013-06-26 23:53:00,
2013-06-26 20:01:00,80.0,68.0,-100.00,South,190,4.0,11.0,68,0.00,,,-99.99,277.000000,,2013-06-27 00:01:00,
2013-06-26 20:34:00,78.0,69.0,-100.00,SSW,211,3.0,8.0,75,0.00,,,0.00,82.000000,,2013-06-27 00:34:00,
2013-06-26 20:43:00,78.0,69.0,-100.00,SSW,211,3.0,8.0,75,0.00,,,0.00,82.000000,,2013-06-27 00:43:00,
2013-06-26 20:53:00,78.0,69.0,-100.00,SSW,211,3.0,8.0,75,0.00,,,0.00,82.000000,,2013-06-27 00:53:00,
2013-06-26 21:01:00,78.0,69.0,-100.00,SSW,211,3.0,8.0,75,0.00,,,0.00,82.000000,,2013-06-27 01:01:00,
2013-06-26 21:32:00,75.0,69.0,-100.00,SSE,154,2.0,6.0,81,0.00,,,0.00,33.000000,,2013-06-27 01:32:00,
2013-06-26 21:43:00,75.0,69.0,-100.00,SSE,154,2.0,6.0,81,0.00,,,0.00,33.000000,,2013-06-27 01:43:00,
2013-06-26 21:53:00,75.0,69.0,-100.00,SSE,154,2.0,6.0,81,0.00,,,0.00,33.000000,,2013-06-27 01:53:00,
2013-06-26 22:01:00,75.0,69.0,-100.00,SSE,154,2.0,6.0,81,0.00,,,0.00,33.000000,,2013-06-27 02:01:00,
2013-06-26 22:42:00,72.0,69.0,-100.00,SE,130,3.0,4.0,90,0.00,,,0.00,0.000000,,2013-06-27 02:42:00,
2013-06-26 22:52:00,72.0,69.0,-100.00,SE,130,3.0,4.0,90,0.00,,,0.00,0.000000,,2013-06-27 02:52:00,
2013-06-26 23:02:00,72.0,69.0,-100.00,SE,130,3.0,4.0,90,0.00,,,0.00,0.000000,,2013-06-27 03:02:00,
2013-06-26 23:42:00,72.0,70.0,-100.00,SE,141,2.0,3.0,92,0.00,,,0.00,0.000000,,2013-06-27 03:42:00,
2013-06-26 23:52:00,72.0,70.0,-100.00,SE,141,2.0,3.0,92,0.00,,,0.00,0.000000,,2013-06-27 03:52:00,